sensor_id;sensor_type;location;lat;lon;timestamp;pressure;altitude;pressure_sealevel;temperature;humidity
21640;BME280;10981;45.462;10.974;2023-11-21T00:00:07;100092.13;;;7.94;100.00
21640;BME280;10981;45.462;10.974;2023-11-21T00:02:41;100104.06;;;7.97;100.00
21640;BME280;10981;45.462;10.974;2023-11-21T00:05:10;100107.38;;;7.99;100.00
21640;BME280;10981;45.462;10.974;2023-11-21T00:07:39;100094.59;;;7.96;100.00
21640;BME280;10981;45.462;10.974;2023-11-21T00:10:09;100077.91;;;7.98;100.00
21640;BME280;10981;45.462;10.974;2023-11-21T00:12:38;100066.28;;;8.02;100.00
21640;BME280;10981;45.462;10.974;2023-11-21T00:15:09;100069.34;;;8.08;100.00
21640;BME280;10981;45.462;10.974;2023-11-21T00:17:38;100062.69;;;8.15;100.00
21640;BME280;10981;45.462;10.974;2023-11-21T00:20:07;100065.16;;;8.16;100.00
21640;BME280;10981;45.462;10.974;2023-11-21T00:22:36;100068.38;;;8.20;100.00
21640;BME280;10981;45.462;10.974;2023-11-21T00:25:05;100066.47;;;8.22;100.00
21640;BME280;10981;45.462;10.974;2023-11-21T00:27:33;100054.25;;;8.23;100.00
21640;BME280;10981;45.462;10.974;2023-11-21T00:30:03;100047.03;;;8.26;100.00
21640;BME280;10981;45.462;10.974;2023-11-21T00:32:38;100047.69;;;8.28;100.00
21640;BME280;10981;45.462;10.974;2023-11-21T00:35:07;100051.38;;;8.26;100.00
21640;BME280;10981;45.462;10.974;2023-11-21T00:37:35;100045.50;;;8.24;100.00
21640;BME280;10981;45.462;10.974;2023-11-21T00:40:04;100037.91;;;8.21;100.00
21640;BME280;10981;45.462;10.974;2023-11-21T00:42:35;100036.50;;;8.16;100.00
21640;BME280;10981;45.462;10.974;2023-11-21T00:45:04;100035.25;;;8.11;100.00
21640;BME280;10981;45.462;10.974;2023-11-21T00:47:34;100040.56;;;8.09;100.00
21640;BME280;10981;45.462;10.974;2023-11-21T00:50:03;100036.53;;;8.05;100.00
21640;BME280;10981;45.462;10.974;2023-11-21T00:52:34;100026.38;;;8.02;100.00
21640;BME280;10981;45.462;10.974;2023-11-21T00:55:02;100033.13;;;8.05;100.00
21640;BME280;10981;45.462;10.974;2023-11-21T00:57:31;100043.41;;;8.06;100.00
21640;BME280;10981;45.462;10.974;2023-11-21T00:59:59;100049.44;;;8.07;100.00
21640;BME280;10981;45.462;10.974;2023-11-21T01:02:28;100051.09;;;8.08;100.00
21640;BME280;10981;45.462;10.974;2023-11-21T01:04:57;100049.56;;;8.05;100.00
21640;BME280;10981;45.462;10.974;2023-11-21T01:07:25;100042.59;;;8.06;100.00
21640;BME280;10981;45.462;10.974;2023-11-21T01:09:53;100039.03;;;8.07;100.00
21640;BME280;10981;45.462;10.974;2023-11-21T01:12:22;100043.06;;;8.11;100.00
21640;BME280;10981;45.462;10.974;2023-11-21T01:14:53;100055.56;;;8.17;100.00
21640;BME280;10981;45.462;10.974;2023-11-21T01:17:21;100045.72;;;8.21;100.00
21640;BME280;10981;45.462;10.974;2023-11-21T01:19:52;100041.59;;;8.18;100.00
21640;BME280;10981;45.462;10.974;2023-11-21T01:22:20;100037.59;;;8.14;100.00
21640;BME280;10981;45.462;10.974;2023-11-21T01:24:54;100040.06;;;8.15;100.00
21640;BME280;10981;45.462;10.974;2023-11-21T01:27:22;100031.56;;;8.13;100.00
21640;BME280;10981;45.462;10.974;2023-11-21T01:29:50;100034.16;;;8.13;100.00
21640;BME280;10981;45.462;10.974;2023-11-21T01:32:22;100032.50;;;8.12;100.00
21640;BME280;10981;45.462;10.974;2023-11-21T01:34:53;100029.50;;;8.17;100.00
21640;BME280;10981;45.462;10.974;2023-11-21T01:37:22;100021.69;;;8.17;100.00
21640;BME280;10981;45.462;10.974;2023-11-21T01:39:50;100018.28;;;8.16;100.00
21640;BME280;10981;45.462;10.974;2023-11-21T01:42:18;100018.97;;;8.18;100.00
21640;BME280;10981;45.462;10.974;2023-11-21T01:44:46;100018.84;;;8.20;100.00
21640;BME280;10981;45.462;10.974;2023-11-21T01:47:15;100014.94;;;8.14;100.00
21640;BME280;10981;45.462;10.974;2023-11-21T01:49:45;100032.69;;;8.21;100.00
21640;BME280;10981;45.462;10.974;2023-11-21T01:52:14;100026.66;;;8.20;100.00
21640;BME280;10981;45.462;10.974;2023-11-21T01:54:42;100025.81;;;8.19;100.00
21640;BME280;10981;45.462;10.974;2023-11-21T01:57:11;100016.97;;;8.22;100.00
21640;BME280;10981;45.462;10.974;2023-11-21T01:59:41;100005.81;;;8.20;100.00
21640;BME280;10981;45.462;10.974;2023-11-21T02:02:10;100004.16;;;8.19;100.00
21640;BME280;10981;45.462;10.974;2023-11-21T02:04:39;99990.31;;;8.18;100.00
21640;BME280;10981;45.462;10.974;2023-11-21T02:07:07;99988.03;;;8.25;100.00
21640;BME280;10981;45.462;10.974;2023-11-21T02:09:37;99981.59;;;8.29;100.00
21640;BME280;10981;45.462;10.974;2023-11-21T02:12:10;99981.25;;;8.34;100.00
21640;BME280;10981;45.462;10.974;2023-11-21T02:14:40;99977.56;;;8.37;100.00
21640;BME280;10981;45.462;10.974;2023-11-21T02:17:08;99972.06;;;8.40;100.00
21640;BME280;10981;45.462;10.974;2023-11-21T02:19:37;99964.16;;;8.41;100.00
21640;BME280;10981;45.462;10.974;2023-11-21T02:22:05;99966.50;;;8.44;100.00
21640;BME280;10981;45.462;10.974;2023-11-21T02:24:35;99958.44;;;8.47;100.00
21640;BME280;10981;45.462;10.974;2023-11-21T02:27:04;99957.25;;;8.52;100.00
21640;BME280;10981;45.462;10.974;2023-11-21T02:29:34;99961.91;;;8.58;100.00
21640;BME280;10981;45.462;10.974;2023-11-21T02:32:02;99959.88;;;8.61;100.00
21640;BME280;10981;45.462;10.974;2023-11-21T02:34:31;99958.00;;;8.63;100.00
21640;BME280;10981;45.462;10.974;2023-11-21T02:37:00;99952.63;;;8.65;100.00
21640;BME280;10981;45.462;10.974;2023-11-21T02:39:28;99953.28;;;8.57;100.00
21640;BME280;10981;45.462;10.974;2023-11-21T02:41:56;99951.78;;;8.43;100.00
21640;BME280;10981;45.462;10.974;2023-11-21T02:44:24;99951.63;;;8.35;100.00
21640;BME280;10981;45.462;10.974;2023-11-21T02:46:52;99947.72;;;8.29;100.00
21640;BME280;10981;45.462;10.974;2023-11-21T02:49:20;99937.69;;;8.25;100.00
21640;BME280;10981;45.462;10.974;2023-11-21T02:51:49;99946.84;;;8.19;100.00
21640;BME280;10981;45.462;10.974;2023-11-21T02:54:17;99947.22;;;8.14;100.00
21640;BME280;10981;45.462;10.974;2023-11-21T02:56:47;99936.09;;;8.12;100.00
21640;BME280;10981;45.462;10.974;2023-11-21T02:59:16;99937.88;;;8.12;100.00
21640;BME280;10981;45.462;10.974;2023-11-21T03:01:46;99924.84;;;8.12;100.00
21640;BME280;10981;45.462;10.974;2023-11-21T03:04:14;99920.59;;;8.11;100.00
21640;BME280;10981;45.462;10.974;2023-11-21T03:06:46;99911.94;;;8.10;100.00
21640;BME280;10981;45.462;10.974;2023-11-21T03:09:14;99903.44;;;8.08;100.00
21640;BME280;10981;45.462;10.974;2023-11-21T03:11:42;99909.34;;;8.10;100.00
21640;BME280;10981;45.462;10.974;2023-11-21T03:14:10;99921.72;;;8.18;100.00
21640;BME280;10981;45.462;10.974;2023-11-21T03:16:39;99917.81;;;8.24;100.00
21640;BME280;10981;45.462;10.974;2023-11-21T03:19:09;99912.09;;;8.30;100.00
21640;BME280;10981;45.462;10.974;2023-11-21T03:21:37;99911.69;;;8.34;100.00
21640;BME280;10981;45.462;10.974;2023-11-21T03:24:05;99912.25;;;8.38;100.00
21640;BME280;10981;45.462;10.974;2023-11-21T03:26:35;99917.22;;;8.41;100.00
21640;BME280;10981;45.462;10.974;2023-11-21T03:29:05;99920.50;;;8.43;100.00
21640;BME280;10981;45.462;10.974;2023-11-21T03:31:33;99912.34;;;8.48;100.00
21640;BME280;10981;45.462;10.974;2023-11-21T03:34:01;99909.03;;;8.46;100.00
21640;BME280;10981;45.462;10.974;2023-11-21T03:36:31;99902.28;;;8.43;100.00
21640;BME280;10981;45.462;10.974;2023-11-21T03:38:59;99907.75;;;8.40;100.00
21640;BME280;10981;45.462;10.974;2023-11-21T03:41:28;99902.09;;;8.35;100.00
21640;BME280;10981;45.462;10.974;2023-11-21T03:43:56;99911.00;;;8.32;100.00
21640;BME280;10981;45.462;10.974;2023-11-21T03:46:24;99911.25;;;8.29;100.00
21640;BME280;10981;45.462;10.974;2023-11-21T03:48:53;99912.47;;;8.25;100.00
21640;BME280;10981;45.462;10.974;2023-11-21T03:51:23;99913.69;;;8.21;100.00
21640;BME280;10981;45.462;10.974;2023-11-21T03:53:51;99916.78;;;8.15;100.00
21640;BME280;10981;45.462;10.974;2023-11-21T03:56:20;99912.06;;;8.09;100.00
21640;BME280;10981;45.462;10.974;2023-11-21T03:58:51;99906.16;;;8.07;100.00
21640;BME280;10981;45.462;10.974;2023-11-21T04:01:20;99912.56;;;8.02;100.00
21640;BME280;10981;45.462;10.974;2023-11-21T04:03:50;99920.44;;;7.91;100.00
21640;BME280;10981;45.462;10.974;2023-11-21T04:06:19;99923.81;;;7.82;100.00
21640;BME280;10981;45.462;10.974;2023-11-21T04:08:47;99917.44;;;7.75;100.00
21640;BME280;10981;45.462;10.974;2023-11-21T04:11:17;99912.22;;;7.75;100.00
21640;BME280;10981;45.462;10.974;2023-11-21T04:13:45;99919.13;;;7.64;100.00
21640;BME280;10981;45.462;10.974;2023-11-21T04:16:17;99915.94;;;7.61;100.00
21640;BME280;10981;45.462;10.974;2023-11-21T04:18:46;99915.28;;;7.47;100.00
21640;BME280;10981;45.462;10.974;2023-11-21T04:21:14;99916.25;;;7.35;100.00
21640;BME280;10981;45.462;10.974;2023-11-21T04:23:43;99918.53;;;7.28;100.00
21640;BME280;10981;45.462;10.974;2023-11-21T04:26:14;99920.56;;;7.13;100.00
21640;BME280;10981;45.462;10.974;2023-11-21T04:28:42;99923.75;;;7.06;100.00
21640;BME280;10981;45.462;10.974;2023-11-21T04:31:10;99922.94;;;7.05;100.00
21640;BME280;10981;45.462;10.974;2023-11-21T04:33:38;99920.56;;;7.02;100.00
21640;BME280;10981;45.462;10.974;2023-11-21T04:36:07;99915.22;;;6.92;100.00
21640;BME280;10981;45.462;10.974;2023-11-21T04:38:35;99910.41;;;6.87;100.00
21640;BME280;10981;45.462;10.974;2023-11-21T04:41:03;99906.28;;;6.85;100.00
21640;BME280;10981;45.462;10.974;2023-11-21T04:43:31;99914.75;;;6.76;100.00
21640;BME280;10981;45.462;10.974;2023-11-21T04:45:59;99919.50;;;6.70;100.00
21640;BME280;10981;45.462;10.974;2023-11-21T04:48:29;99923.75;;;6.71;100.00
21640;BME280;10981;45.462;10.974;2023-11-21T04:50:59;99927.28;;;6.70;100.00
21640;BME280;10981;45.462;10.974;2023-11-21T04:53:27;99923.16;;;6.68;100.00
21640;BME280;10981;45.462;10.974;2023-11-21T04:55:55;99929.53;;;6.64;100.00
21640;BME280;10981;45.462;10.974;2023-11-21T04:58:23;99923.53;;;6.63;100.00
21640;BME280;10981;45.462;10.974;2023-11-21T05:00:51;99923.41;;;6.65;100.00
21640;BME280;10981;45.462;10.974;2023-11-21T05:03:19;99919.03;;;6.65;100.00
21640;BME280;10981;45.462;10.974;2023-11-21T05:05:48;99921.03;;;6.62;100.00
21640;BME280;10981;45.462;10.974;2023-11-21T05:08:16;99912.75;;;6.57;100.00
21640;BME280;10981;45.462;10.974;2023-11-21T05:10:45;99925.19;;;6.53;100.00
21640;BME280;10981;45.462;10.974;2023-11-21T05:13:13;99913.94;;;6.52;100.00
21640;BME280;10981;45.462;10.974;2023-11-21T05:15:45;99908.63;;;6.54;100.00
21640;BME280;10981;45.462;10.974;2023-11-21T05:18:13;99914.78;;;6.53;100.00
21640;BME280;10981;45.462;10.974;2023-11-21T05:20:44;99912.63;;;6.47;100.00
21640;BME280;10981;45.462;10.974;2023-11-21T05:23:12;99909.09;;;6.48;100.00
21640;BME280;10981;45.462;10.974;2023-11-21T05:25:41;99901.41;;;6.46;100.00
21640;BME280;10981;45.462;10.974;2023-11-21T05:28:09;99906.50;;;6.36;100.00
21640;BME280;10981;45.462;10.974;2023-11-21T05:30:37;99914.84;;;6.29;100.00
21640;BME280;10981;45.462;10.974;2023-11-21T05:33:07;99914.22;;;6.14;100.00
21640;BME280;10981;45.462;10.974;2023-11-21T05:35:35;99909.13;;;6.01;100.00
21640;BME280;10981;45.462;10.974;2023-11-21T05:38:03;99911.75;;;5.88;100.00
21640;BME280;10981;45.462;10.974;2023-11-21T05:40:33;99905.47;;;5.79;100.00
21640;BME280;10981;45.462;10.974;2023-11-21T05:43:01;99900.84;;;5.83;100.00
21640;BME280;10981;45.462;10.974;2023-11-21T05:45:30;99897.78;;;5.78;100.00
21640;BME280;10981;45.462;10.974;2023-11-21T05:47:59;99897.22;;;5.85;100.00
21640;BME280;10981;45.462;10.974;2023-11-21T05:50:27;99899.59;;;5.88;100.00
21640;BME280;10981;45.462;10.974;2023-11-21T05:52:56;99895.63;;;5.96;100.00
21640;BME280;10981;45.462;10.974;2023-11-21T05:55:26;99893.84;;;5.96;100.00
21640;BME280;10981;45.462;10.974;2023-11-21T05:57:54;99897.56;;;5.81;100.00
21640;BME280;10981;45.462;10.974;2023-11-21T06:00:22;99894.94;;;5.69;100.00
21640;BME280;10981;45.462;10.974;2023-11-21T06:02:53;99897.72;;;5.66;100.00
21640;BME280;10981;45.462;10.974;2023-11-21T06:05:24;99893.59;;;5.64;100.00
21640;BME280;10981;45.462;10.974;2023-11-21T06:07:55;99898.00;;;5.75;100.00
21640;BME280;10981;45.462;10.974;2023-11-21T06:10:27;99898.94;;;5.73;100.00
21640;BME280;10981;45.462;10.974;2023-11-21T06:12:56;99899.50;;;5.66;100.00
21640;BME280;10981;45.462;10.974;2023-11-21T06:15:30;99904.09;;;5.62;100.00
21640;BME280;10981;45.462;10.974;2023-11-21T06:17:58;99894.63;;;5.61;100.00
21640;BME280;10981;45.462;10.974;2023-11-21T06:20:28;99898.56;;;5.67;100.00
21640;BME280;10981;45.462;10.974;2023-11-21T06:22:56;99904.63;;;5.79;100.00
21640;BME280;10981;45.462;10.974;2023-11-21T06:25:24;99905.97;;;5.84;100.00
21640;BME280;10981;45.462;10.974;2023-11-21T06:27:52;99904.78;;;5.88;100.00
21640;BME280;10981;45.462;10.974;2023-11-21T06:30:21;99909.56;;;5.70;100.00
21640;BME280;10981;45.462;10.974;2023-11-21T06:32:51;99901.94;;;5.56;100.00
21640;BME280;10981;45.462;10.974;2023-11-21T06:35:21;99901.94;;;5.56;100.00
21640;BME280;10981;45.462;10.974;2023-11-21T06:37:49;99901.00;;;5.57;100.00
21640;BME280;10981;45.462;10.974;2023-11-21T06:40:19;99896.84;;;5.54;100.00
21640;BME280;10981;45.462;10.974;2023-11-21T06:42:48;99893.56;;;5.52;100.00
21640;BME280;10981;45.462;10.974;2023-11-21T06:45:18;99892.72;;;5.52;100.00
21640;BME280;10981;45.462;10.974;2023-11-21T06:47:48;99890.13;;;5.52;100.00
21640;BME280;10981;45.462;10.974;2023-11-21T06:50:17;99889.91;;;5.55;100.00
21640;BME280;10981;45.462;10.974;2023-11-21T06:52:45;99889.06;;;5.54;100.00
21640;BME280;10981;45.462;10.974;2023-11-21T06:55:13;99883.88;;;5.54;100.00
21640;BME280;10981;45.462;10.974;2023-11-21T06:57:42;99894.75;;;5.60;100.00
21640;BME280;10981;45.462;10.974;2023-11-21T07:00:11;99899.50;;;5.66;100.00
21640;BME280;10981;45.462;10.974;2023-11-21T07:02:39;99900.84;;;5.71;100.00
21640;BME280;10981;45.462;10.974;2023-11-21T07:05:08;99899.56;;;5.77;100.00
21640;BME280;10981;45.462;10.974;2023-11-21T07:07:37;99892.88;;;5.86;100.00
21640;BME280;10981;45.462;10.974;2023-11-21T07:10:07;99885.03;;;5.99;100.00
21640;BME280;10981;45.462;10.974;2023-11-21T07:12:36;99881.28;;;6.14;100.00
21640;BME280;10981;45.462;10.974;2023-11-21T07:15:04;99878.59;;;6.27;100.00
21640;BME280;10981;45.462;10.974;2023-11-21T07:17:35;99884.84;;;6.36;100.00
21640;BME280;10981;45.462;10.974;2023-11-21T07:20:07;99881.66;;;6.44;100.00
21640;BME280;10981;45.462;10.974;2023-11-21T07:22:39;99882.63;;;6.54;100.00
21640;BME280;10981;45.462;10.974;2023-11-21T07:25:07;99874.63;;;6.68;100.00
21640;BME280;10981;45.462;10.974;2023-11-21T07:27:37;99876.75;;;6.75;100.00
21640;BME280;10981;45.462;10.974;2023-11-21T07:30:06;99878.00;;;6.92;100.00
21640;BME280;10981;45.462;10.974;2023-11-21T07:32:36;99878.22;;;7.00;100.00
21640;BME280;10981;45.462;10.974;2023-11-21T07:35:05;99886.28;;;7.08;100.00
21640;BME280;10981;45.462;10.974;2023-11-21T07:37:35;99888.75;;;7.10;100.00
21640;BME280;10981;45.462;10.974;2023-11-21T07:40:03;99887.22;;;7.07;100.00
21640;BME280;10981;45.462;10.974;2023-11-21T07:42:31;99891.34;;;6.98;100.00
21640;BME280;10981;45.462;10.974;2023-11-21T07:45:00;99894.34;;;6.94;100.00
21640;BME280;10981;45.462;10.974;2023-11-21T07:47:30;99887.94;;;6.98;100.00
21640;BME280;10981;45.462;10.974;2023-11-21T07:50:04;99890.66;;;6.96;100.00
21640;BME280;10981;45.462;10.974;2023-11-21T07:52:33;99880.63;;;6.92;100.00
21640;BME280;10981;45.462;10.974;2023-11-21T07:55:01;99871.03;;;6.92;100.00
21640;BME280;10981;45.462;10.974;2023-11-21T07:57:29;99867.63;;;6.92;100.00
21640;BME280;10981;45.462;10.974;2023-11-21T07:59:59;99865.28;;;6.89;100.00
21640;BME280;10981;45.462;10.974;2023-11-21T08:02:28;99867.38;;;6.95;100.00
21640;BME280;10981;45.462;10.974;2023-11-21T08:04:58;99871.03;;;6.92;100.00
21640;BME280;10981;45.462;10.974;2023-11-21T08:07:26;99863.81;;;6.96;100.00
21640;BME280;10981;45.462;10.974;2023-11-21T08:09:55;99854.34;;;7.06;100.00
21640;BME280;10981;45.462;10.974;2023-11-21T08:12:24;99859.41;;;7.19;100.00
21640;BME280;10981;45.462;10.974;2023-11-21T08:14:54;99861.28;;;7.28;100.00
21640;BME280;10981;45.462;10.974;2023-11-21T08:17:23;99849.88;;;7.41;100.00
21640;BME280;10981;45.462;10.974;2023-11-21T08:19:51;99853.59;;;7.59;100.00
21640;BME280;10981;45.462;10.974;2023-11-21T08:22:20;99854.72;;;7.78;100.00
21640;BME280;10981;45.462;10.974;2023-11-21T08:24:49;99861.31;;;8.03;100.00
21640;BME280;10981;45.462;10.974;2023-11-21T08:27:18;99865.84;;;8.32;100.00
21640;BME280;10981;45.462;10.974;2023-11-21T08:29:47;99859.28;;;8.59;100.00
21640;BME280;10981;45.462;10.974;2023-11-21T08:32:15;99850.47;;;8.81;100.00
21640;BME280;10981;45.462;10.974;2023-11-21T08:34:43;99852.97;;;9.02;100.00
21640;BME280;10981;45.462;10.974;2023-11-21T08:37:18;99856.03;;;9.27;100.00
21640;BME280;10981;45.462;10.974;2023-11-21T08:39:47;99856.47;;;9.42;100.00
21640;BME280;10981;45.462;10.974;2023-11-21T08:42:16;99853.69;;;9.53;100.00
21640;BME280;10981;45.462;10.974;2023-11-21T08:44:44;99858.28;;;9.61;100.00
21640;BME280;10981;45.462;10.974;2023-11-21T08:47:12;99864.72;;;9.67;100.00
21640;BME280;10981;45.462;10.974;2023-11-21T08:49:43;99858.38;;;9.69;100.00
21640;BME280;10981;45.462;10.974;2023-11-21T08:52:11;99860.59;;;9.74;100.00
21640;BME280;10981;45.462;10.974;2023-11-21T08:54:40;99860.16;;;9.78;100.00
21640;BME280;10981;45.462;10.974;2023-11-21T08:57:09;99850.56;;;9.79;100.00
21640;BME280;10981;45.462;10.974;2023-11-21T08:59:40;99857.44;;;9.80;100.00
21640;BME280;10981;45.462;10.974;2023-11-21T09:02:08;99868.94;;;9.77;100.00
21640;BME280;10981;45.462;10.974;2023-11-21T09:04:37;99871.56;;;9.77;100.00
21640;BME280;10981;45.462;10.974;2023-11-21T09:07:07;99876.53;;;9.80;100.00
21640;BME280;10981;45.462;10.974;2023-11-21T09:09:35;99880.50;;;9.85;100.00
21640;BME280;10981;45.462;10.974;2023-11-21T09:12:04;99881.47;;;9.84;100.00
21640;BME280;10981;45.462;10.974;2023-11-21T09:14:32;99867.03;;;9.89;100.00
21640;BME280;10981;45.462;10.974;2023-11-21T09:17:00;99870.72;;;9.96;100.00
21640;BME280;10981;45.462;10.974;2023-11-21T09:19:29;99868.94;;;9.97;100.00
21640;BME280;10981;45.462;10.974;2023-11-21T09:21:57;99864.13;;;10.02;100.00
21640;BME280;10981;45.462;10.974;2023-11-21T09:24:25;99858.75;;;9.94;100.00
21640;BME280;10981;45.462;10.974;2023-11-21T09:26:53;99857.00;;;9.94;100.00
21640;BME280;10981;45.462;10.974;2023-11-21T09:29:22;99859.88;;;9.91;100.00
21640;BME280;10981;45.462;10.974;2023-11-21T09:31:50;99846.00;;;9.91;100.00
21640;BME280;10981;45.462;10.974;2023-11-21T09:34:19;99844.06;;;9.93;100.00
21640;BME280;10981;45.462;10.974;2023-11-21T09:36:48;99849.81;;;9.96;100.00
21640;BME280;10981;45.462;10.974;2023-11-21T09:39:16;99847.91;;;9.98;100.00
21640;BME280;10981;45.462;10.974;2023-11-21T09:41:54;99854.50;;;10.03;100.00
21640;BME280;10981;45.462;10.974;2023-11-21T09:47:33;99856.78;;;10.15;100.00
21640;BME280;10981;45.462;10.974;2023-11-21T09:50:05;99846.47;;;10.24;100.00
21640;BME280;10981;45.462;10.974;2023-11-21T09:52:54;99843.28;;;10.30;100.00
21640;BME280;10981;45.462;10.974;2023-11-21T09:55:26;99841.50;;;10.40;100.00
21640;BME280;10981;45.462;10.974;2023-11-21T09:57:57;99837.19;;;10.49;100.00
21640;BME280;10981;45.462;10.974;2023-11-21T10:00:29;99841.41;;;10.60;100.00
21640;BME280;10981;45.462;10.974;2023-11-21T10:03:01;99844.94;;;10.69;100.00
21640;BME280;10981;45.462;10.974;2023-11-21T10:05:31;99843.78;;;10.81;100.00
21640;BME280;10981;45.462;10.974;2023-11-21T10:08:09;99833.94;;;10.93;100.00
21640;BME280;10981;45.462;10.974;2023-11-21T10:10:44;99832.78;;;11.05;100.00
21640;BME280;10981;45.462;10.974;2023-11-21T10:13:14;99835.88;;;11.19;100.00
21640;BME280;10981;45.462;10.974;2023-11-21T10:15:50;99841.69;;;11.31;100.00
21640;BME280;10981;45.462;10.974;2023-11-21T10:18:19;99835.72;;;11.38;100.00
21640;BME280;10981;45.462;10.974;2023-11-21T10:20:50;99829.72;;;11.46;100.00
21640;BME280;10981;45.462;10.974;2023-11-21T10:23:23;99837.41;;;11.48;100.00
21640;BME280;10981;45.462;10.974;2023-11-21T10:25:53;99840.19;;;11.46;100.00
21640;BME280;10981;45.462;10.974;2023-11-21T10:28:25;99839.22;;;11.47;100.00
21640;BME280;10981;45.462;10.974;2023-11-21T10:30:53;99850.75;;;11.54;100.00
21640;BME280;10981;45.462;10.974;2023-11-21T10:33:28;99846.16;;;11.56;100.00
21640;BME280;10981;45.462;10.974;2023-11-21T10:35:59;99847.44;;;11.52;100.00
21640;BME280;10981;45.462;10.974;2023-11-21T10:38:35;99843.19;;;11.51;100.00
21640;BME280;10981;45.462;10.974;2023-11-21T10:41:12;99841.53;;;11.50;100.00
21640;BME280;10981;45.462;10.974;2023-11-21T10:43:44;99843.19;;;11.51;100.00
21640;BME280;10981;45.462;10.974;2023-11-21T10:46:13;99843.03;;;11.53;100.00
21640;BME280;10981;45.462;10.974;2023-11-21T10:48:42;99843.41;;;11.58;100.00
21640;BME280;10981;45.462;10.974;2023-11-21T10:51:11;99840.50;;;11.61;100.00
21640;BME280;10981;45.462;10.974;2023-11-21T10:53:40;99845.88;;;11.59;100.00
21640;BME280;10981;45.462;10.974;2023-11-21T10:56:14;99840.88;;;11.48;100.00
21640;BME280;10981;45.462;10.974;2023-11-21T10:58:49;99834.63;;;11.49;100.00
21640;BME280;10981;45.462;10.974;2023-11-21T11:01:20;99850.13;;;11.42;100.00
21640;BME280;10981;45.462;10.974;2023-11-21T11:03:53;99841.09;;;11.37;100.00
21640;BME280;10981;45.462;10.974;2023-11-21T11:06:24;99838.91;;;11.32;100.00
21640;BME280;10981;45.462;10.974;2023-11-21T11:08:55;99839.06;;;11.31;100.00
21640;BME280;10981;45.462;10.974;2023-11-21T11:11:24;99839.50;;;11.26;100.00
21640;BME280;10981;45.462;10.974;2023-11-21T11:13:53;99833.00;;;11.12;100.00
21640;BME280;10981;45.462;10.974;2023-11-21T11:16:22;99836.13;;;10.98;100.00
21640;BME280;10981;45.462;10.974;2023-11-21T11:18:53;99834.25;;;10.90;100.00
21640;BME280;10981;45.462;10.974;2023-11-21T11:24:31;99843.63;;;10.83;100.00
21640;BME280;10981;45.462;10.974;2023-11-21T11:27:32;99841.72;;;10.85;100.00
21640;BME280;10981;45.462;10.974;2023-11-21T11:30:43;99840.38;;;10.81;100.00
21640;BME280;10981;45.462;10.974;2023-11-21T11:36:25;99826.88;;;10.75;100.00
21640;BME280;10981;45.462;10.974;2023-11-21T11:38:54;99823.22;;;10.68;100.00
21640;BME280;10981;45.462;10.974;2023-11-21T11:41:28;99826.41;;;10.62;100.00
21640;BME280;10981;45.462;10.974;2023-11-21T11:44:01;99829.16;;;10.60;100.00
21640;BME280;10981;45.462;10.974;2023-11-21T11:46:42;99821.59;;;10.57;100.00
21640;BME280;10981;45.462;10.974;2023-11-21T11:49:23;99822.28;;;10.59;100.00
21640;BME280;10981;45.462;10.974;2023-11-21T11:55:01;99830.22;;;10.68;100.00
21640;BME280;10981;45.462;10.974;2023-11-21T11:57:40;99824.13;;;10.77;100.00
21640;BME280;10981;45.462;10.974;2023-11-21T12:00:13;99813.09;;;10.83;100.00
21640;BME280;10981;45.462;10.974;2023-11-21T12:03:03;99810.53;;;10.91;100.00
21640;BME280;10981;45.462;10.974;2023-11-21T12:05:33;99823.31;;;10.94;100.00
21640;BME280;10981;45.462;10.974;2023-11-21T12:08:07;99817.28;;;10.94;100.00
21640;BME280;10981;45.462;10.974;2023-11-21T12:10:39;99818.94;;;10.95;100.00
21640;BME280;10981;45.462;10.974;2023-11-21T12:13:09;99814.66;;;10.94;100.00
21640;BME280;10981;45.462;10.974;2023-11-21T12:15:39;99817.13;;;10.95;100.00
21640;BME280;10981;45.462;10.974;2023-11-21T12:18:09;99810.09;;;10.96;100.00
21640;BME280;10981;45.462;10.974;2023-11-21T12:20:40;99805.25;;;11.01;100.00
21640;BME280;10981;45.462;10.974;2023-11-21T12:23:10;99801.06;;;11.08;100.00
21640;BME280;10981;45.462;10.974;2023-11-21T12:25:39;99797.25;;;11.21;100.00
21640;BME280;10981;45.462;10.974;2023-11-21T12:28:11;99796.88;;;11.34;100.00
21640;BME280;10981;45.462;10.974;2023-11-21T12:30:40;99795.50;;;11.48;100.00
21640;BME280;10981;45.462;10.974;2023-11-21T12:33:08;99791.38;;;11.63;100.00
21640;BME280;10981;45.462;10.974;2023-11-21T12:35:38;99787.59;;;11.84;100.00
21640;BME280;10981;45.462;10.974;2023-11-21T12:38:06;99783.97;;;12.03;100.00
21640;BME280;10981;45.462;10.974;2023-11-21T12:40:36;99786.38;;;12.22;100.00
21640;BME280;10981;45.462;10.974;2023-11-21T12:43:07;99776.75;;;12.39;100.00
21640;BME280;10981;45.462;10.974;2023-11-21T12:45:38;99778.13;;;12.52;100.00
21640;BME280;10981;45.462;10.974;2023-11-21T12:48:06;99773.72;;;12.61;100.00
21640;BME280;10981;45.462;10.974;2023-11-21T12:50:40;99771.44;;;12.66;100.00
21640;BME280;10981;45.462;10.974;2023-11-21T12:53:10;99770.13;;;12.70;100.00
21640;BME280;10981;45.462;10.974;2023-11-21T12:55:44;99771.63;;;12.72;100.00
21640;BME280;10981;45.462;10.974;2023-11-21T12:58:19;99772.47;;;12.73;100.00
21640;BME280;10981;45.462;10.974;2023-11-21T13:00:49;99771.63;;;12.72;100.00
21640;BME280;10981;45.462;10.974;2023-11-21T13:03:17;99777.72;;;12.73;100.00
21640;BME280;10981;45.462;10.974;2023-11-21T13:05:48;99784.59;;;12.74;100.00
21640;BME280;10981;45.462;10.974;2023-11-21T13:08:24;99780.97;;;12.75;100.00
21640;BME280;10981;45.462;10.974;2023-11-21T13:10:55;99787.06;;;12.75;100.00